MSC Regina — 3FGF9 — position and weather

sailwx.info

Track history (hours):
 
Tides and Currents Weather Stations Pressure Air Temp Water Temp Dewpoint Dewpoint Depression Visibility Wind Speed Wind Dir Waves Ship Positions

MSC Regina

Last reported at 2014-Jul-30 16:31 UTC. Time now 2014-Jul-31 11:39 UTC.
Position N 39°01' E 000°12'.

Length 259 m; draft 8.6 m.

Type: Ship (hazmat cat A). MMSI: 357332000.

Date/timePositionNaut miles runAvg speedWind from/ knotsBaromVisibWave heightAir tempDewpointWater temp
2014-Jul-30 16:31N 39°01' E 000°12'1917.3
2014-Jul-30 15:25N 38°45' E 000°26'1315.4
2014-Jul-30 14:33N 38°33' E 000°20'1817.5
2014-Jul-30 13:33N 38°18' E 000°08'3617.0
2014-Jul-30 11:27N 37°49' W 000°18'1516.7
2014-Jul-30 10:33N 37°37' W 000°29'1616.1
2014-Jul-30 09:33N 37°25' W 000°43'1716.3
2014-Jul-30 08:32N 37°14' W 000°58'3415.8
2014-Jul-30 06:24N 36°51' W 001°29'28916.8
2014-Jul-29 13:13N 36°09' W 007°25'1717.2
2014-Jul-29 12:15N 36°13' W 007°45'3017.2
2014-Jul-29 10:32N 36°21' W 008°20'1616.9
2014-Jul-29 09:33N 36°25' W 008°40'1716.8
2014-Jul-29 08:33N 36°31' W 008°59'1716.8
2014-Jul-29 07:31N 36°37' W 009°20'1717.5
2014-Jul-29 06:33N 36°49' W 009°34'3516.5
2014-Jul-29 04:24N 37°22' W 009°17'1517.2
2014-Jul-29 03:32N 37°34' W 009°06'1717.4
2014-Jul-29 02:33N 37°49' W 008°54'8 7.8
2014-Jul-29 01:33N 37°56' W 008°51'0 0.0
2014-Jul-29 00:32N 37°56' W 008°51'0 0.0
2014-Jul-28 23:32N 37°56' W 008°51'0 0.0
2014-Jul-28 22:32N 37°56' W 008°51'0 0.0
2014-Jul-28 21:32N 37°56' W 008°51'0 0.0
2014-Jul-28 20:32N 37°56' W 008°51'0 0.0
2014-Jul-28 19:32N 37°56' W 008°51'0 0.0
2014-Jul-28 18:32N 37°56' W 008°51'0 0.0
2014-Jul-28 17:32N 37°56' W 008°51'0 0.0
2014-Jul-28 16:33N 37°56' W 008°51'0 0.0
2014-Jul-28 15:33N 37°56' W 008°51'0 0.4
2014-Jul-28 14:33N 37°56' W 008°51'5 4.9
2014-Jul-28 13:33N 37°54' W 008°57'1413.8
2014-Jul-28 12:33N 37°58' W 009°13'1414.2
2014-Jul-28 11:33N 38°04' W 009°30'1514.4
2014-Jul-28 10:31N 38°10' W 009°47'1414.5
2014-Jul-28 09:33N 38°16' W 010°03'1514.5
2014-Jul-28 08:33N 38°22' W 010°20'1414.0
2014-Jul-28 07:33N 38°28' W 010°36'1713.9
2014-Jul-28 06:18N 38°35' W 010°56'1014.1
2014-Jul-28 05:34N 38°40' W 011°09'1414.2
2014-Jul-28 04:33N 38°45' W 011°25'1414.5
2014-Jul-28 03:33N 38°51' W 011°42'1514.3
2014-Jul-28 02:33N 38°57' W 011°59'1414.2
2014-Jul-28 01:33N 39°03' W 012°16'1814.1
2014-Jul-28 00:15N 39°10' W 012°37'  
2014-Jul-21 21:33N 46°36' W 071°59'1111.5
2014-Jul-21 20:33N 46°31' W 072°13'2 8.2
2014-Jul-21 20:18N 46°29' W 072°14'5 6.4
2014-Jul-21 19:33N 46°26' W 072°20'8 8.1
2014-Jul-21 18:33N 46°22' W 072°30'9 8.5
2014-Jul-21 17:34N 46°16' W 072°39'10 9.8
2014-Jul-21 16:34N 46°12' W 072°52'9 9.4
2014-Jul-21 15:33N 46°05' W 073°01'27 8.9
2014-Jul-21 12:32N 45°44' W 073°25'9 9.3
2014-Jul-21 11:33N 45°35' W 073°30'1 1.0
2014-Jul-21 10:33N 45°35' W 073°31'0 0.0
2014-Jul-21 09:33N 45°35' W 073°31'0 0.0
2014-Jul-21 08:33N 45°35' W 073°31'0 0.0
2014-Jul-21 07:33N 45°35' W 073°31'0 0.0
2014-Jul-21 06:33N 45°35' W 073°31'0 0.0
2014-Jul-21 05:33N 45°35' W 073°31'0 0.0
2014-Jul-21 04:33N 45°35' W 073°31'0 0.0
2014-Jul-21 03:33N 45°35' W 073°31'0 0.0
2014-Jul-21 02:33N 45°35' W 073°31'0 0.0
2014-Jul-21 01:33N 45°35' W 073°31'0 0.0
2014-Jul-21 00:33N 45°35' W 073°31'0 0.0
2014-Jul-20 23:33N 45°35' W 073°31'0 0.0
2014-Jul-20 22:33N 45°35' W 073°31'0 0.0
2014-Jul-20 21:33N 45°35' W 073°31'0 0.0
2014-Jul-20 20:33N 45°35' W 073°31'0 0.0
2014-Jul-20 19:33N 45°35' W 073°31'0 0.0
2014-Jul-20 18:33N 45°35' W 073°31'0 0.0
2014-Jul-20 17:33N 45°35' W 073°31'0 0.0
2014-Jul-20 16:33N 45°35' W 073°31'  
Track history (hours):
 
Tides and Currents Weather Stations Pressure Air Temp Water Temp Dewpoint Dewpoint Depression Visibility Wind Speed Wind Dir Waves Ship Positions

MSC Regina

Last reported at 2014-Jul-30 16:31 UTC. Time now 2014-Jul-31 11:39 UTC.
Position N 39°01' E 000°12'.

Length 259 m; draft 8.6 m.

Type: Ship (hazmat cat A). MMSI: 357332000.

Date/timePositionNaut miles runAvg speedWind from/ knotsBaromVisibWave heightAir tempDewpointWater temp
2014-Jul-30 16:31N 39°01' E 000°12'1917.3
2014-Jul-30 15:25N 38°45' E 000°26'1315.4
2014-Jul-30 14:33N 38°33' E 000°20'1817.5
2014-Jul-30 13:33N 38°18' E 000°08'3617.0
2014-Jul-30 11:27N 37°49' W 000°18'1516.7
2014-Jul-30 10:33N 37°37' W 000°29'1616.1
2014-Jul-30 09:33N 37°25' W 000°43'1716.3
2014-Jul-30 08:32N 37°14' W 000°58'3415.8
2014-Jul-30 06:24N 36°51' W 001°29'28916.8
2014-Jul-29 13:13N 36°09' W 007°25'1717.2
2014-Jul-29 12:15N 36°13' W 007°45'3017.2
2014-Jul-29 10:32N 36°21' W 008°20'1616.9
2014-Jul-29 09:33N 36°25' W 008°40'1716.8
2014-Jul-29 08:33N 36°31' W 008°59'1716.8
2014-Jul-29 07:31N 36°37' W 009°20'1717.5
2014-Jul-29 06:33N 36°49' W 009°34'3516.5
2014-Jul-29 04:24N 37°22' W 009°17'1517.2
2014-Jul-29 03:32N 37°34' W 009°06'1717.4
2014-Jul-29 02:33N 37°49' W 008°54'8 7.8
2014-Jul-29 01:33N 37°56' W 008°51'0 0.0
2014-Jul-29 00:32N 37°56' W 008°51'0 0.0
2014-Jul-28 23:32N 37°56' W 008°51'0 0.0
2014-Jul-28 22:32N 37°56' W 008°51'0 0.0
2014-Jul-28 21:32N 37°56' W 008°51'0 0.0
2014-Jul-28 20:32N 37°56' W 008°51'0 0.0
2014-Jul-28 19:32N 37°56' W 008°51'0 0.0
2014-Jul-28 18:32N 37°56' W 008°51'0 0.0
2014-Jul-28 17:32N 37°56' W 008°51'0 0.0
2014-Jul-28 16:33N 37°56' W 008°51'0 0.0
2014-Jul-28 15:33N 37°56' W 008°51'0 0.4
2014-Jul-28 14:33N 37°56' W 008°51'5 4.9
2014-Jul-28 13:33N 37°54' W 008°57'1413.8
2014-Jul-28 12:33N 37°58' W 009°13'1414.2
2014-Jul-28 11:33N 38°04' W 009°30'1514.4
2014-Jul-28 10:31N 38°10' W 009°47'1414.5
2014-Jul-28 09:33N 38°16' W 010°03'1514.5
2014-Jul-28 08:33N 38°22' W 010°20'1414.0
2014-Jul-28 07:33N 38°28' W 010°36'1713.9
2014-Jul-28 06:18N 38°35' W 010°56'1014.1
2014-Jul-28 05:34N 38°40' W 011°09'1414.2
2014-Jul-28 04:33N 38°45' W 011°25'1414.5
2014-Jul-28 03:33N 38°51' W 011°42'1514.3
2014-Jul-28 02:33N 38°57' W 011°59'1414.2
2014-Jul-28 01:33N 39°03' W 012°16'1814.1
2014-Jul-28 00:15N 39°10' W 012°37'  
2014-Jul-21 21:33N 46°36' W 071°59'1111.5
2014-Jul-21 20:33N 46°31' W 072°13'2 8.2
2014-Jul-21 20:18N 46°29' W 072°14'5 6.4
2014-Jul-21 19:33N 46°26' W 072°20'8 8.1
2014-Jul-21 18:33N 46°22' W 072°30'9 8.5
2014-Jul-21 17:34N 46°16' W 072°39'10 9.8
2014-Jul-21 16:34N 46°12' W 072°52'9 9.4
2014-Jul-21 15:33N 46°05' W 073°01'27 8.9
2014-Jul-21 12:32N 45°44' W 073°25'9 9.3
2014-Jul-21 11:33N 45°35' W 073°30'1 1.0
2014-Jul-21 10:33N 45°35' W 073°31'0 0.0
2014-Jul-21 09:33N 45°35' W 073°31'0 0.0
2014-Jul-21 08:33N 45°35' W 073°31'0 0.0
2014-Jul-21 07:33N 45°35' W 073°31'0 0.0
2014-Jul-21 06:33N 45°35' W 073°31'0 0.0
2014-Jul-21 05:33N 45°35' W 073°31'0 0.0
2014-Jul-21 04:33N 45°35' W 073°31'0 0.0
2014-Jul-21 03:33N 45°35' W 073°31'0 0.0
2014-Jul-21 02:33N 45°35' W 073°31'0 0.0
2014-Jul-21 01:33N 45°35' W 073°31'0 0.0
2014-Jul-21 00:33N 45°35' W 073°31'0 0.0
2014-Jul-20 23:33N 45°35' W 073°31'0 0.0
2014-Jul-20 22:33N 45°35' W 073°31'0 0.0
2014-Jul-20 21:33N 45°35' W 073°31'0 0.0
2014-Jul-20 20:33N 45°35' W 073°31'0 0.0
2014-Jul-20 19:33N 45°35' W 073°31'0 0.0
2014-Jul-20 18:33N 45°35' W 073°31'0 0.0
2014-Jul-20 17:33N 45°35' W 073°31'0 0.0
2014-Jul-20 16:33N 45°35' W 073°31'  

Dump ship's entire track history